.
WxDataArchive / Data Records for 2011-11-09
2011-11-08 November 2011 2011-11-10

Data Records for Wednesday, 09 November 2011

Time	Temp	Chill	HIndex	Humid	Dewpt	 Wind 	HiWind	WindDir	Rain 	Barom 
-----	----	-----	------	-----	-----	------	------	-------	-----	----- 
00:00	62.1	62.1	62.1	64	49.8	1	4	68	0.00	29.937 
00:05	62.1	62.1	62.1	64	49.8	1	4	45	0.00	29.937 
00:10	62.1	62.1	62.1	64	49.8	1	3	90	0.00	29.937 
00:15	62.0	62.0	62.0	65	50.1	0	2	90	0.00	29.933 
00:20	61.8	61.8	61.8	65	49.9	1	3	90	0.00	29.933 
00:25	61.6	61.6	61.6	65	49.7	0	3	45	0.00	29.933 
00:30	61.6	61.6	61.6	65	49.7	0	2	90	0.00	29.931 
00:35	61.5	61.5	61.5	65	49.6	0	3	90	0.00	29.931 
00:40	61.3	61.3	61.3	65	49.4	0	2	315	0.00	29.931 
00:45	61.3	61.3	61.3	65	49.4	0	2	315	0.00	29.926 
00:50	61.3	61.3	61.3	65	49.4	1	6	135	0.00	29.926 
00:55	61.3	61.3	61.3	65	49.4	0	3	112	0.00	29.926 
01:00	61.3	61.3	61.3	65	49.4	2	5	90	0.00	29.919 
01:05	61.3	61.3	61.3	64	49.0	2	4	90	0.00	29.919 
01:10	61.5	61.5	61.5	65	49.6	1	4	338	0.00	29.919 
01:15	61.3	61.3	61.3	65	49.4	1	3	0	0.00	29.920 
01:20	61.3	61.3	61.3	65	49.4	1	3	0	0.00	29.920 
01:25	61.3	61.3	61.3	65	49.4	1	3	0	0.00	29.920 
01:30	61.2	61.2	61.2	65	49.3	1	5	0	0.00	29.917 
01:35	61.2	61.2	61.2	65	49.3	1	4	45	0.00	29.917 
01:40	61.2	61.2	61.2	65	49.3	0	4	90	0.00	29.917 
01:45	61.0	61.0	61.0	65	49.1	0	2	68	0.00	29.915 
01:50	61.0	61.0	61.0	65	49.1	1	5	90	0.00	29.915 
01:55	60.9	60.9	60.9	65	49.1	1	3	0	0.00	29.915 
02:00	60.9	60.9	60.9	65	49.1	2	5	90	0.00	29.910 
02:05	61.0	61.0	61.0	65	49.1	1	3	112	0.00	29.910 
02:10	60.9	60.9	60.9	65	49.1	1	4	112	0.00	29.910 
02:15	60.9	60.9	60.9	65	49.1	1	5	292	0.00	29.904 
02:20	60.9	60.9	60.9	65	49.1	1	5	90	0.00	29.904 
02:25	60.9	60.9	60.9	65	49.1	1	3	90	0.00	29.904 
02:30	60.7	60.7	60.7	66	49.3	1	4	68	0.00	29.904 
02:35	60.5	60.5	60.5	67	49.5	0	2	90	0.00	29.904 
02:40	60.2	60.2	60.2	68	49.6	1	5	90	0.00	29.904 
02:45	60.1	60.1	60.1	68	49.5	1	4	270	0.00	29.905 
02:50	60.1	60.1	60.1	70	50.3	3	10	270	0.00	29.905 
02:55	59.6	59.6	59.6	74	51.3	2	7	270	0.00	29.905 
03:00	59.0	59.0	59.0	76	51.4	1	5	270	0.01	29.904 
03:05	58.6	58.6	58.6	78	51.8	1	7	248	0.00	29.904 
03:10	58.1	58.1	58.1	80	52.0	0	4	248	0.01	29.904 
03:15	57.6	57.6	57.6	81	51.8	0	2	248	0.00	29.895 
03:20	57.2	57.2	57.2	83	52.1	0	1	248	0.01	29.895 
03:25	56.9	56.9	56.9	84	52.1	0	1	315	0.00	29.895 
03:30	56.7	56.7	56.7	85	52.2	0	2	315	0.00	29.884 
03:35	56.5	56.5	56.5	85	52.0	0	3	315	0.00	29.884 
03:40	56.3	56.3	56.3	86	52.2	0	1	315	0.00	29.884 
03:45	56.2	56.2	56.2	86	52.1	0	3	315	0.00	29.875 
03:50	56.0	56.0	56.0	87	52.2	0	1	248	0.00	29.875 
03:55	56.0	56.0	56.0	87	52.2	0	1	248	0.01	29.875 
04:00	55.9	55.9	55.9	88	52.4	0	1	248	0.00	29.866 
04:05	55.9	55.9	55.9	88	52.4	0	1	248	0.01	29.866 
04:10	55.7	55.7	55.7	88	52.2	0	1	248	0.00	29.866 
04:15	55.7	55.7	55.7	89	52.5	0	3	90	0.00	29.866 
04:20	55.6	55.6	55.6	89	52.4	0	1	90	0.00	29.866 
04:25	55.6	55.6	55.6	89	52.4	0	2	315	0.00	29.866 
04:30	55.7	55.7	55.7	89	52.5	0	3	315	0.01	29.861 
04:35	55.6	55.6	55.6	89	52.4	0	2	315	0.00	29.861 
04:40	55.6	55.6	55.6	89	52.4	0	1	315	0.00	29.861 
04:45	55.6	55.6	55.6	89	52.4	0	2	315	0.00	29.861 
04:50	55.6	55.6	55.6	89	52.4	0	2	315	0.00	29.861 
04:55	55.6	55.6	55.6	90	52.7	0	1	315	0.00	29.861 
05:00	55.6	55.6	55.6	90	52.7	0	1	315	0.01	29.860 
05:05	55.4	55.4	55.4	90	52.5	0	3	135	0.00	29.860 
05:10	55.4	55.4	55.4	90	52.5	0	3	135	0.00	29.860 
05:15	55.4	55.4	55.4	90	52.5	0	2	135	0.00	29.859 
05:20	55.4	55.4	55.4	90	52.5	0	3	112	0.01	29.859 
05:25	55.3	55.3	55.3	90	52.4	0	2	112	0.00	29.859 
05:30	55.3	55.3	55.3	90	52.4	0	1	112	0.00	29.847 
05:35	55.3	55.3	55.3	90	52.4	0	2	112	0.01	29.847 
05:40	55.1	55.1	55.1	91	52.5	0	2	112	0.00	29.847 
05:45	55.1	55.1	55.1	91	52.5	0	2	112	0.00	29.838 
05:50	55.0	55.0	55.0	91	52.4	0	1	112	0.00	29.838 
05:55	55.0	55.0	55.0	91	52.4	0	2	112	0.01	29.838 
06:00	54.8	54.8	54.8	91	52.2	0	2	112	0.00	29.830 
06:05	54.8	54.8	54.8	91	52.2	0	1	112	0.00	29.830 
06:10	54.7	54.7	54.7	91	52.1	0	2	112	0.00	29.830 
06:15	54.7	54.7	54.7	92	52.4	0	1	112	0.00	29.826 
06:20	54.5	54.5	54.5	92	52.2	1	4	112	0.00	29.826 
06:25	54.5	54.5	54.5	92	52.2	1	3	112	0.00	29.826 
06:30	54.4	54.4	54.4	92	52.1	0	2	112	0.00	29.819 
06:35	54.4	54.4	54.4	92	52.1	1	3	112	0.00	29.819 
06:40	54.2	54.2	54.2	92	51.9	0	3	112	0.00	29.819 
06:45	54.2	54.2	54.2	92	51.9	0	3	112	0.00	29.802 
06:50	54.2	54.2	54.2	92	51.9	0	1	112	0.00	29.802 
06:55	54.1	54.1	54.1	92	51.8	1	3	112	0.00	29.802 
07:00	54.1	54.1	54.1	91	51.5	1	4	135	0.00	29.798 
07:05	54.1	54.1	54.1	91	51.5	1	3	68	0.00	29.798 
07:10	54.1	54.1	54.1	91	51.5	1	3	90	0.00	29.798 
07:15	54.1	54.1	54.1	91	51.5	1	4	90	0.00	29.796 
07:20	54.1	54.1	54.1	91	51.5	0	3	90	0.00	29.796 
07:25	54.1	54.1	54.1	90	51.2	1	3	90	0.00	29.796 
07:30	54.2	54.2	54.2	90	51.3	0	3	90	0.00	29.786 
07:35	54.2	54.2	54.2	90	51.3	1	3	90	0.00	29.786 
07:40	54.2	54.2	54.2	90	51.3	1	2	90	0.00	29.786 
07:45	54.2	54.2	54.2	90	51.3	0	2	112	0.00	29.779 
07:50	54.4	54.4	54.4	90	51.5	1	4	112	0.00	29.779 
07:55	54.4	54.4	54.4	90	51.5	1	2	112	0.00	29.779 
08:00	54.5	54.5	54.5	90	51.6	1	4	112	0.00	29.767 
08:05	54.7	54.7	54.7	89	51.5	2	4	90	0.00	29.767 
08:10	54.8	54.8	54.8	89	51.6	2	5	90	0.00	29.767 
08:15	55.1	55.1	55.1	89	51.9	3	8	90	0.00	29.754 
08:20	55.3	55.3	55.3	88	51.8	2	6	68	0.00	29.754 
08:25	55.6	55.6	55.6	88	52.1	2	6	90	0.01	29.754 
08:30	55.7	55.7	55.7	88	52.2	2	5	112	0.00	29.745 
08:35	55.7	55.7	55.7	89	52.5	2	6	90	0.01	29.745 
08:40	55.7	55.7	55.7	89	52.5	2	5	90	0.00	29.745 
08:45	55.6	55.6	55.6	90	52.7	2	6	90	0.00	29.724 
08:50	55.6	55.6	55.6	91	53.0	3	5	68	0.00	29.724 
08:55	55.6	55.6	55.6	91	53.0	2	5	68	0.01	29.724 
09:00	55.6	55.6	55.6	91	53.0	3	9	90	0.00	29.719 
09:05	55.6	55.6	55.6	91	53.0	3	7	90	0.00	29.719 
09:10	55.6	55.6	55.6	92	53.3	3	9	90	0.01	29.719 
09:15	55.6	55.6	55.6	92	53.3	3	7	90	0.01	29.719 
09:20	55.7	55.7	55.7	92	53.4	3	10	90	0.01	29.719 
09:25	55.7	55.7	55.7	92	53.4	2	4	90	0.03	29.719 
09:30	55.7	55.7	55.7	93	53.7	4	13	90	0.00	29.721 
09:35	55.9	55.9	55.9	93	53.9	2	7	90	0.00	29.721 
09:40	56.0	56.0	56.0	93	54.0	2	9	68	0.00	29.721 
09:45	56.0	56.0	56.0	93	54.0	2	10	68	0.00	29.718 
09:50	56.2	56.2	56.2	93	54.2	2	6	112	0.00	29.718 
09:55	56.2	56.2	56.2	93	54.2	2	5	68	0.00	29.718 
10:00	56.3	56.3	56.3	93	54.3	3	12	90	0.00	29.708 
10:05	56.5	56.5	56.5	93	54.5	3	12	68	0.00	29.708 
10:10	56.6	56.6	56.6	93	54.6	4	12	112	0.00	29.708 
10:15	56.6	56.6	56.6	93	54.6	3	14	68	0.00	29.705 
10:20	56.7	56.7	56.7	92	54.4	3	6	90	0.00	29.705 
10:25	56.9	56.9	56.9	92	54.6	3	7	90	0.00	29.705 
10:30	57.0	57.0	57.0	92	54.7	3	11	90	0.00	29.704 
10:35	57.2	57.2	57.2	91	54.6	2	7	225	0.00	29.704 
10:40	57.3	57.3	57.3	91	54.7	2	6	112	0.00	29.704 
10:45	57.5	57.5	57.5	90	54.6	3	11	90	0.00	29.698 
10:50	57.6	57.6	57.6	90	54.7	3	9	90	0.00	29.698 
10:55	57.8	57.8	57.8	89	54.6	3	7	270	0.00	29.698 
11:00	58.1	58.1	58.1	89	54.9	2	7	90	0.00	29.694 
11:05	58.4	58.4	58.4	89	55.2	3	9	90	0.00	29.694 
11:10	58.7	58.7	58.7	88	55.2	3	12	90	0.00	29.694 
11:15	59.2	59.2	59.2	88	55.6	2	10	68	0.00	29.687 
11:20	59.5	59.5	59.5	87	55.6	3	9	90	0.00	29.687 
11:25	59.8	59.8	59.8	86	55.6	3	10	90	0.00	29.687 
11:30	60.1	60.1	60.1	85	55.6	3	10	68	0.00	29.674 
11:35	60.4	60.4	60.4	85	55.9	3	10	90	0.00	29.674 
11:40	60.5	60.5	60.5	84	55.6	3	6	248	0.00	29.674 
11:45	61.0	61.0	61.0	84	56.1	3	10	90	0.00	29.665 
11:50	61.3	61.3	61.3	82	55.8	3	10	68	0.00	29.665 
11:55	61.6	61.6	61.6	81	55.7	3	7	248	0.00	29.665 
12:00	61.6	61.6	61.6	81	55.7	2	14	270	0.00	29.652 
12:05	62.0	62.0	62.0	81	56.1	3	6	248	0.00	29.652 
12:10	62.4	62.4	62.4	79	55.8	3	7	90	0.00	29.652 
12:15	62.7	62.7	62.7	78	55.7	2	6	270	0.00	29.640 
12:20	63.2	63.2	63.2	77	55.9	3	7	292	0.00	29.640 
12:25	63.5	63.5	63.5	77	56.2	2	9	248	0.00	29.640 
12:30	63.9	63.9	63.9	73	55.1	3	10	270	0.00	29.624 
12:35	64.2	64.2	64.2	73	55.4	2	6	248	0.00	29.624 
12:40	64.3	64.3	64.3	71	54.7	3	10	248	0.00	29.624 
12:45	64.3	64.3	64.3	71	54.7	2	9	270	0.00	29.620 
12:50	64.3	64.3	64.3	70	54.3	4	11	292	0.00	29.620 
12:55	64.3	64.3	64.3	70	54.3	3	12	248	0.00	29.620 
13:00	64.2	64.2	64.2	68	53.4	3	9	248	0.00	29.607 
13:05	64.0	64.0	64.0	68	53.2	3	9	270	0.00	29.607 
13:10	63.9	63.9	63.9	68	53.1	3	11	270	0.00	29.607 
13:15	63.9	63.9	63.9	68	53.1	4	7	270	0.00	29.615 
13:20	63.9	63.9	63.9	65	51.9	5	13	248	0.00	29.615 
13:25	62.9	62.9	62.9	63	50.1	8	18	270	0.00	29.615 
13:30	62.6	62.6	62.6	65	50.7	5	22	248	0.00	29.631 
13:35	62.3	62.3	62.3	64	50.0	6	17	248	0.00	29.631 
13:40	62.3	62.3	62.3	65	50.4	5	13	248	0.00	29.631 
13:45	62.4	62.4	62.4	64	50.1	5	13	270	0.00	29.629 
13:50	62.1	62.1	62.1	62	48.9	5	15	270	0.00	29.629 
13:55	61.6	61.6	61.6	62	48.4	7	14	270	0.00	29.629 
14:00	61.6	61.6	61.6	62	48.4	6	13	248	0.00	29.638 
14:05	61.5	61.5	61.5	58	46.6	8	18	270	0.00	29.638 
14:10	61.2	61.2	61.2	58	46.3	7	15	270	0.00	29.638 
14:15	60.9	60.9	60.9	58	46.0	6	21	248	0.00	29.644 
14:20	60.7	60.7	60.7	55	44.4	7	20	270	0.00	29.644 
14:25	60.5	60.5	60.5	54	43.8	7	14	270	0.00	29.644 
14:30	60.4	60.4	60.4	53	43.2	7	19	270	0.00	29.649 
14:35	59.8	59.8	59.8	54	43.1	7	16	248	0.00	29.649 
14:40	59.3	59.3	59.3	56	43.6	6	14	270	0.00	29.649 
14:45	59.0	59.0	59.0	60	45.1	5	12	270	0.00	29.662 
14:50	58.7	58.7	58.7	63	46.1	6	16	270	0.00	29.662 
14:55	58.1	58.1	58.1	65	46.4	6	14	270	0.00	29.662 
15:00	56.9	56.9	56.9	66	45.7	7	13	270	0.00	29.679 
15:05	55.3	55.3	55.3	67	44.5	8	17	270	0.00	29.679 
15:10	54.1	54.1	54.1	69	44.2	6	16	248	0.00	29.679 
15:15	53.5	53.5	53.5	70	44.0	5	12	270	0.00	29.697 
15:20	53.2	53.2	53.2	71	44.0	5	18	248	0.00	29.697 
15:25	52.9	52.9	52.9	69	43.0	7	15	270	0.00	29.697 
15:30	52.6	52.6	52.6	69	42.7	7	19	270	0.00	29.702 
15:35	52.5	52.5	52.5	69	42.6	4	9	270	0.00	29.702 
15:40	52.2	52.2	52.2	68	42.0	7	13	270	0.00	29.702 
15:45	51.7	51.7	51.7	68	41.5	7	14	270	0.00	29.716 
15:50	51.0	51.0	51.0	67	40.4	8	16	270	0.00	29.716 
15:55	50.4	50.4	50.4	67	39.9	8	21	270	0.00	29.716 
16:00	49.9	46.6	49.9	67	39.4	8	23	270	0.00	29.733 
16:05	49.5	45.8	49.5	67	39.0	9	17	270	0.00	29.733 
16:10	49.2	46.2	49.2	68	39.1	7	18	248	0.00	29.733 
16:15	48.9	46.4	48.9	68	38.8	6	18	270	0.00	29.736 
16:20	48.5	46.5	48.5	68	38.4	5	11	270	0.00	29.736 
16:25	48.0	45.3	48.0	67	37.6	6	15	270	0.00	29.736 
16:30	47.6	44.3	47.6	65	36.4	7	20	270	0.00	29.750 
16:35	47.1	44.2	47.1	67	36.7	6	14	270	0.00	29.750 
16:40	46.4	42.9	46.4	68	36.4	7	18	248	0.00	29.750 
16:45	46.0	43.5	46.0	69	36.4	5	24	248	0.00	29.768 
16:50	45.5	41.3	45.5	69	35.9	8	16	270	0.00	29.768 
16:55	45.1	41.8	45.1	71	36.3	6	16	248	0.00	29.768 
17:00	44.6	41.9	44.6	73	36.5	5	15	270	0.00	29.772 
17:05	44.2	41.4	44.2	76	37.1	5	14	270	0.00	29.772 
17:10	43.6	39.5	43.6	77	36.9	7	15	270	0.00	29.772 
17:15	43.3	41.1	43.3	78	36.9	4	10	248	0.00	29.787 
17:20	43.2	39.0	43.2	76	36.2	7	17	270	0.00	29.787 
17:25	43.2	39.6	43.2	75	35.8	6	16	270	0.00	29.787 
17:30	43.2	41.0	43.2	75	35.8	4	14	270	0.00	29.791 
17:35	43.2	40.2	43.2	75	35.8	5	12	270	0.00	29.791 
17:40	42.9	39.2	42.9	76	35.9	6	12	270	0.00	29.791 
17:45	42.8	39.8	42.8	77	36.1	5	11	270	0.00	29.803 
17:50	42.6	38.3	42.6	75	35.2	7	16	270	0.00	29.803 
17:55	42.5	38.7	42.5	73	34.5	6	16	270	0.00	29.803 
18:00	42.5	39.4	42.5	73	34.5	5	12	248	0.00	29.808 
18:05	42.3	38.5	42.3	74	34.6	6	12	270	0.00	29.808 
18:10	42.3	38.5	42.3	74	34.6	6	14	248	0.00	29.808 
18:15	42.2	37.8	42.2	73	34.2	7	17	270	0.00	29.820 
18:20	42.1	37.7	42.1	73	34.1	7	14	270	0.00	29.820 
18:25	41.9	38.7	41.9	75	34.6	5	13	270	0.00	29.820 
18:30	41.8	37.3	41.8	74	34.1	7	15	270	0.00	29.826 
18:35	41.6	39.2	41.6	74	33.9	4	10	248	0.00	29.826 
18:40	41.5	38.2	41.5	74	33.8	5	14	270	0.00	29.826 
18:45	41.3	38.0	41.3	74	33.6	5	10	270	0.00	29.841 
18:50	41.2	37.2	41.2	73	33.2	6	13	270	0.00	29.841 
18:55	41.1	36.5	41.1	74	33.5	7	16	270	0.00	29.841 
19:00	40.9	36.2	40.9	75	33.6	7	16	270	0.00	29.852 
19:05	40.8	38.2	40.8	76	33.8	4	10	270	0.00	29.852 
19:10	40.6	37.2	40.6	76	33.6	5	11	270	0.00	29.852 
19:15	40.6	37.2	40.6	75	33.3	5	13	270	0.00	29.858 
19:20	40.6	37.2	40.6	75	33.3	5	12	270	0.00	29.858 
19:25	40.8	37.4	40.8	75	33.5	5	10	270	0.00	29.858 
19:30	40.8	37.4	40.8	75	33.5	5	10	270	0.00	29.868 
19:35	40.8	37.4	40.8	75	33.5	5	12	270	0.00	29.868 
19:40	40.9	37.5	40.9	75	33.6	5	13	270	0.00	29.868 
19:45	40.9	37.5	40.9	75	33.6	5	11	270	0.00	29.873 
19:50	40.9	38.4	40.9	75	33.6	4	11	270	0.00	29.873 
19:55	40.8	36.7	40.8	74	33.2	6	14	270	0.00	29.873 
20:00	40.8	37.4	40.8	74	33.2	5	12	270	0.00	29.882 
20:05	40.6	37.2	40.6	74	33.0	5	13	270	0.00	29.882 
20:10	40.6	37.2	40.6	75	33.3	5	14	248	0.00	29.882 
20:15	40.6	37.2	40.6	75	33.3	5	10	248	0.00	29.885 
20:20	40.6	37.2	40.6	76	33.6	5	10	270	0.00	29.885 
20:25	40.5	37.9	40.5	76	33.5	4	7	270	0.00	29.885 
20:30	40.3	36.8	40.3	77	33.7	5	11	270	0.00	29.894 
20:35	40.3	37.7	40.3	77	33.7	4	9	270	0.00	29.894 
20:40	40.2	36.7	40.2	77	33.6	5	9	270	0.00	29.894 
20:45	40.3	36.8	40.3	77	33.7	5	11	270	0.00	29.900 
20:50	40.3	36.8	40.3	76	33.3	5	12	270	0.00	29.900 
20:55	40.3	36.8	40.3	76	33.3	5	9	270	0.00	29.900 
21:00	40.3	36.8	40.3	75	33.0	5	10	270	0.00	29.908 
21:05	40.2	37.5	40.2	74	32.6	4	7	270	0.00	29.908 
21:10	40.3	37.7	40.3	75	33.0	4	6	270	0.00	29.908 
21:15	40.3	37.7	40.3	75	33.0	4	6	248	0.00	29.917 
21:20	40.3	37.7	40.3	75	33.0	4	10	270	0.00	29.917 
21:25	40.3	40.3	40.3	75	33.0	3	5	270	0.00	29.917 
21:30	40.3	37.7	40.3	75	33.0	4	12	270	0.00	29.928 
21:35	40.3	37.7	40.3	75	33.0	4	10	270	0.00	29.928 
21:40	40.3	40.3	40.3	75	33.0	3	7	248	0.00	29.928 
21:45	40.2	37.5	40.2	75	32.9	4	7	270	0.00	29.929 
21:50	40.2	37.5	40.2	76	33.3	4	10	270	0.00	29.929 
21:55	40.2	40.2	40.2	76	33.3	3	6	270	0.00	29.929 
22:00	40.3	40.3	40.3	76	33.3	3	7	270	0.00	29.933 
22:05	40.3	40.3	40.3	75	33.0	3	8	270	0.00	29.933 
22:10	40.3	37.7	40.3	75	33.0	4	7	270	0.00	29.933 
22:15	40.3	37.7	40.3	75	33.0	4	9	270	0.00	29.944 
22:20	40.3	37.7	40.3	76	33.3	4	9	270	0.00	29.944 
22:25	40.2	37.5	40.2	76	33.3	4	8	270	0.00	29.944 
22:30	40.1	37.4	40.1	76	33.2	4	7	270	0.00	29.943 
22:35	40.1	40.1	40.1	77	33.5	3	6	248	0.00	29.943 
22:40	40.1	37.4	40.1	76	33.2	4	9	270	0.00	29.943 
22:45	40.2	40.2	40.2	77	33.6	3	7	270	0.00	29.950 
22:50	40.2	40.2	40.2	76	33.3	3	7	248	0.00	29.950 
22:55	40.2	40.2	40.2	77	33.6	2	5	248	0.00	29.950 
23:00	40.2	40.2	40.2	76	33.3	3	6	270	0.00	29.951 
23:05	40.2	40.2	40.2	77	33.6	2	6	248	0.00	29.951 
23:10	40.2	37.5	40.2	77	33.6	4	6	270	0.00	29.951 
23:15	40.2	40.2	40.2	77	33.6	3	6	292	0.00	29.952 
23:20	40.2	40.2	40.2	77	33.6	3	5	248	0.00	29.952 
23:25	40.2	40.2	40.2	77	33.6	2	5	270	0.00	29.952 
23:30	40.2	40.2	40.2	77	33.6	3	6	248	0.00	29.954 
23:35	40.2	40.2	40.2	77	33.6	2	7	248	0.00	29.954 
23:40	40.2	40.2	40.2	77	33.6	1	4	270	0.00	29.954 
23:45	40.2	40.2	40.2	77	33.6	3	9	248	0.00	29.957 
23:50	40.3	40.3	40.3	77	33.7	2	5	270	0.00	29.957 
23:55	40.3	40.3	40.3	77	33.7	2	6	248	0.00	29.957 

CoCoRaHS
IN-AL-39
A2 Web Hosting
Creative Commons License
GoDaddy
search engine by freefind advanced

loaded 2018-11-13 02:45:26 • last modified 2010-11-18 10:43:29
Privacy PolicyDisclaimer
• wx.awcolley.com is powered by PmWiki v.2002016 •
• all content (unless otherwise noted) © 2018 A W Colley